Galway, Ireland

2:11 PM IST on April 19, 2015 (GMT +0100)
ICOGALWA4 | | Change Station
CLOSE
Current Station
Personal Weather Station
Location: Galway City, Co. Galway
Elevation: 75 ft
Nearby Weather Stations

Elev 75 ft 53.29 °N, 9.07 °W | Updated 9 seconds ago

Clear
Clear
58.6 °F
Feels Like 58.6 °F
N
9.0
Wind Variable Wind from East
Gusts 17.0 mph

Today
High -- | Low -- °F
--% Chance of Precip.
Yesterday
High -- | Low -- °F
Precip. -- in
6:28 AM 8:43 PM
New Moon, 1% visible
Pressure 30.30 in
Visibility -9999.0 miles
Clouds
Dew Point 47 °F
Humidity 66%
Rainfall 0.00 in
Snow Depth Not available.
UV 3.4 out of 12
Pollen Not available.
Air Quality Not available.
Flu Activity Not available.
METAR EINN 191300Z 05011KT CAVOK 15/04 Q1026 NOSIG

More Conditions Fewer Conditions

Pressure 30.30 in
Visibility -9999.0 miles
Clouds
Dew Point 47 °F
Humidity 66%
Rainfall 0.00 in
Snow Depth Not available.
UV 3.4 out of 12
Pollen Not available.
Air Quality Not available.
Flu Activity Not available.
METAR EINN 191300Z 05011KT CAVOK 15/04 Q1026 NOSIG

More Conditions Fewer Conditions

10-Day Weather Forecast

Almanac

Astronomy

Apr. 19, 2015 Rise Set
Actual Time
Civil Twilight
Nautical Twilight
Astronomical Twilight
Moon
Length of Visible Light
Length of Day
Tomorrow will be .
, % of the Moon is Illuminated

Today's Extremes

Country Highs Country Lows

Community

WunderPhotos

Upload Photos

1,814,787 photos uploaded!

WunderBlogs® & News

Nearby

Air Quality

  Air Quality AQ Index Pollutant
Not available.

Snow Depth

Station Depth Elevation

Earthquake Activity

City Distance Mag. Time & Date
Minimum magnitude displayed is 2.5.

Coastal Water Temperatures

Place Temperature

Stations

Nearby Weather Stations

Station Location Temp. Windchill Dew Point Humidity Wind Precip. Elev Updated Type